createdAt,value
2022-08-27T00:02:17.154Z,97416.97
2022-08-27T00:04:46.515Z,97414.72
2022-08-27T00:07:14.700Z,97420.47
2022-08-27T00:09:43.393Z,97416.09
2022-08-27T00:12:12.200Z,97410.97
2022-08-27T00:14:40.628Z,97406.69
2022-08-27T00:17:09.453Z,97413.34
2022-08-27T00:19:38.231Z,97409.09
2022-08-27T00:22:08.713Z,97401.53
2022-08-27T00:24:42.073Z,97411.91
2022-08-27T00:27:17.873Z,97407.22
2022-08-27T00:29:47.744Z,97404.75
2022-08-27T00:32:16.771Z,97399.25
2022-08-27T00:34:45.110Z,97399.78
2022-08-27T00:37:13.312Z,97399.31
2022-08-27T00:39:41.637Z,97396.00
2022-08-27T00:42:10.311Z,97396.94
2022-08-27T00:44:38.989Z,97400.13
2022-08-27T00:47:15.369Z,97399.66
2022-08-27T00:50:09.231Z,97408.59
2022-08-27T00:52:48.849Z,97403.59
2022-08-27T00:55:49.435Z,97404.78
2022-08-27T00:58:46.808Z,97404.47
2022-08-27T01:01:20.103Z,97408.88
2022-08-27T01:03:52.931Z,97414.53
2022-08-27T01:06:25.090Z,97409.81
2022-08-27T01:09:07.920Z,97409.69
2022-08-27T01:11:37.455Z,97412.72
2022-08-27T01:14:06.627Z,97404.00
2022-08-27T01:16:40.304Z,97392.16
2022-08-27T01:19:20.409Z,97384.97
2022-08-27T01:22:22.013Z,97399.09
2022-08-27T01:24:56.295Z,97398.75
2022-08-27T01:27:28.717Z,97403.31
2022-08-27T01:29:58.121Z,97400.38
2022-08-27T01:32:32.683Z,97394.97
2022-08-27T01:35:02.926Z,97398.16
2022-08-27T01:37:31.128Z,97390.88
2022-08-27T01:40:00.131Z,97400.38
2022-08-27T01:42:37.112Z,97398.97
2022-08-27T01:45:12.994Z,97397.91
2022-08-27T01:47:42.756Z,97398.28
2022-08-27T01:50:16.628Z,97393.09
2022-08-27T01:52:45.642Z,97394.38
2022-08-27T01:55:19.987Z,97406.38
2022-08-27T01:57:48.888Z,97400.38
2022-08-27T02:00:32.268Z,97409.16
2022-08-27T02:03:00.891Z,97394.81
2022-08-27T02:05:30.320Z,97408.00
2022-08-27T02:07:59.337Z,97404.91
2022-08-27T02:10:35.820Z,97405.63
2022-08-27T02:13:06.782Z,97401.19
2022-08-27T02:15:37.404Z,97402.94
2022-08-27T02:18:07.732Z,97396.34
2022-08-27T02:20:36.566Z,97403.16
2022-08-27T02:23:06.464Z,97399.88
2022-08-27T02:25:34.995Z,97397.91
2022-08-27T02:28:06.077Z,97401.78
2022-08-27T02:30:36.096Z,97403.09
2022-08-27T02:33:05.889Z,97399.31
2022-08-27T02:35:40.818Z,97398.03
2022-08-27T02:38:10.373Z,97407.09
2022-08-27T02:40:38.784Z,97406.72
2022-08-27T02:43:07.051Z,97406.25
2022-08-27T02:45:37.572Z,97413.88
2022-08-27T02:48:06.457Z,97412.50
2022-08-27T02:50:35.872Z,97414.28
2022-08-27T02:53:06.585Z,97408.50
2022-08-27T02:55:34.677Z,97416.03
2022-08-27T02:58:05.630Z,97411.34
2022-08-27T03:00:34.214Z,97411.66
2022-08-27T03:03:03.366Z,97410.75
2022-08-27T03:05:31.929Z,97408.63
2022-08-27T03:08:00.136Z,97400.38
2022-08-27T03:10:28.222Z,97407.34
2022-08-27T03:12:57.747Z,97405.00
2022-08-27T03:15:26.062Z,97405.22
2022-08-27T03:18:12.929Z,97404.16
2022-08-27T03:20:44.541Z,97404.28
2022-08-27T03:23:14.802Z,97405.00
2022-08-27T03:25:54.036Z,97408.75
2022-08-27T03:28:26.175Z,97402.16
2022-08-27T03:30:59.609Z,97398.84
2022-08-27T03:33:30.261Z,97402.75
2022-08-27T03:35:58.726Z,97401.91
2022-08-27T03:38:27.413Z,97402.28
2022-08-27T03:40:55.860Z,97400.28
2022-08-27T03:43:24.751Z,97405.13
2022-08-27T03:46:01.922Z,97403.47
2022-08-27T03:48:32.416Z,97405.81
2022-08-27T03:51:06.765Z,97407.47
2022-08-27T03:53:36.901Z,97398.63
2022-08-27T03:56:06.524Z,97395.69
2022-08-27T03:58:37.367Z,97398.75
2022-08-27T04:01:08.572Z,97399.22
2022-08-27T04:03:37.130Z,97394.53
2022-08-27T04:06:05.830Z,97404.63
2022-08-27T04:08:34.018Z,97397.81
2022-08-27T04:11:07.522Z,97389.78
2022-08-27T04:13:35.580Z,97387.78
2022-08-27T04:16:06.515Z,97388.19
2022-08-27T04:18:34.988Z,97385.81
2022-08-27T04:21:14.722Z,97387.66
2022-08-27T04:23:43.659Z,97383.69
2022-08-27T04:26:12.554Z,97398.41
2022-08-27T04:28:40.758Z,97390.63
2022-08-27T04:31:13.898Z,97395.22
2022-08-27T04:33:51.017Z,97391.59
2022-08-27T04:36:20.726Z,97395.34
2022-08-27T04:38:49.439Z,97394.16
2022-08-27T04:43:58.079Z,97398.50
2022-08-27T04:46:32.550Z,97400.50
2022-08-27T04:49:10.350Z,97392.38
2022-08-27T04:51:40.425Z,97393.34
2022-08-27T04:54:10.451Z,97388.19
2022-08-27T04:56:39.475Z,97391.44
2022-08-27T04:59:10.121Z,97394.16
2022-08-27T05:01:41.263Z,97395.34
2022-08-27T05:04:12.133Z,97391.00
2022-08-27T05:06:40.554Z,97398.50
2022-08-27T05:09:08.671Z,97399.59
2022-08-27T05:11:37.213Z,97398.78
2022-08-27T05:14:08.185Z,97399.69
2022-08-27T05:16:37.204Z,97401.47
2022-08-27T05:19:09.381Z,97397.56
2022-08-27T05:21:45.609Z,97404.78
2022-08-27T05:24:14.429Z,97393.44
2022-08-27T05:26:42.733Z,97396.50
2022-08-27T05:29:11.550Z,97391.94
2022-08-27T05:31:40.927Z,97403.34
2022-08-27T05:34:13.902Z,97395.91
2022-08-27T05:36:48.087Z,97400.03
2022-08-27T05:39:17.815Z,97399.19
2022-08-27T05:41:46.018Z,97399.09
2022-08-27T05:47:04.021Z,97405.91
2022-08-27T05:49:32.391Z,97403.19
2022-08-27T05:52:00.518Z,97398.41
2022-08-27T05:54:28.611Z,97397.22
2022-08-27T05:56:56.802Z,97400.97
2022-08-27T05:59:43.753Z,97400.28
2022-08-27T06:02:11.987Z,97411.34
2022-08-27T06:04:40.034Z,97401.91
2022-08-27T06:07:11.112Z,97410.75
2022-08-27T06:09:40.039Z,97407.66
2022-08-27T06:12:09.324Z,97404.97
2022-08-27T06:14:38.586Z,97404.94
2022-08-27T06:17:06.805Z,97405.44
2022-08-27T06:19:36.845Z,97409.31
2022-08-27T06:22:09.766Z,97410.00
2022-08-27T06:24:41.627Z,97405.53
2022-08-27T06:27:17.972Z,97414.59
2022-08-27T06:29:46.899Z,97406.84
2022-08-27T06:32:15.559Z,97407.38
2022-08-27T06:34:43.787Z,97407.34
2022-08-27T06:37:11.863Z,97410.78
2022-08-27T06:39:40.511Z,97411.13
2022-08-27T06:42:12.719Z,97414.03
2022-08-27T06:44:41.984Z,97425.22
2022-08-27T06:47:11.014Z,97412.63
2022-08-27T06:49:43.839Z,97423.25
2022-08-27T06:52:15.818Z,97424.00
2022-08-27T06:54:45.128Z,97421.75
2022-08-27T06:57:13.303Z,97420.53
2022-08-27T06:59:41.531Z,97415.53
2022-08-27T07:02:09.764Z,97421.75
2022-08-27T07:04:37.919Z,97423.03
2022-08-27T07:07:06.482Z,97424.41
2022-08-27T07:09:34.954Z,97421.81
2022-08-27T07:12:04.199Z,97419.53
2022-08-27T07:14:37.774Z,97423.41
2022-08-27T07:17:11.208Z,97427.25
2022-08-27T07:19:44.554Z,97420.81
2022-08-27T07:22:14.287Z,97427.41
2022-08-27T07:24:42.732Z,97429.59
2022-08-27T07:27:10.954Z,97432.81
2022-08-27T07:29:39.384Z,97428.22
2022-08-27T07:32:07.577Z,97447.09
2022-08-27T07:34:35.677Z,97440.38
2022-08-27T07:37:04.013Z,97444.66
2022-08-27T07:39:32.200Z,97441.94
2022-08-27T07:42:18.866Z,97446.91
2022-08-27T07:44:47.817Z,97449.28
2022-08-27T07:47:15.991Z,97446.13
2022-08-27T07:49:44.325Z,97454.00
2022-08-27T07:52:13.008Z,97451.66
2022-08-27T07:54:41.583Z,97450.59
2022-08-27T07:57:12.049Z,97458.50
2022-08-27T07:59:40.383Z,97453.72
2022-08-27T08:02:08.667Z,97461.25
2022-08-27T08:04:36.794Z,97460.59
2022-08-27T08:07:04.972Z,97463.75
2022-08-27T08:09:33.665Z,97468.44
2022-08-27T08:12:01.871Z,97467.25
2022-08-27T08:14:32.357Z,97474.56
2022-08-27T08:17:02.782Z,97465.59
2022-08-27T08:19:34.142Z,97466.03
2022-08-27T08:22:05.508Z,97469.53
2022-08-27T08:24:36.570Z,97472.97
2022-08-27T08:27:07.410Z,97467.50
2022-08-27T08:29:36.212Z,97476.69
2022-08-27T08:32:07.753Z,97473.00
2022-08-27T08:34:36.831Z,97478.34
2022-08-27T08:37:07.039Z,97486.50
2022-08-27T08:39:37.540Z,97480.50
2022-08-27T08:42:18.205Z,97479.63
2022-08-27T08:44:53.008Z,97471.28
2022-08-27T08:47:51.570Z,97477.97
2022-08-27T08:50:44.491Z,97482.66
2022-08-27T08:53:33.459Z,97486.44
2022-08-27T08:56:08.040Z,97483.34
2022-08-27T08:58:52.180Z,97487.69
2022-08-27T09:01:21.871Z,97485.81
2022-08-27T09:04:00.779Z,97496.50
2022-08-27T09:06:53.283Z,97494.59
2022-08-27T09:09:24.177Z,97496.31
2022-08-27T09:12:15.142Z,97487.69
2022-08-27T09:15:14.650Z,97493.66
2022-08-27T09:17:44.518Z,97495.44
2022-08-27T09:20:14.792Z,97492.88
2022-08-27T09:23:14.544Z,97495.44
2022-08-27T09:25:43.707Z,97490.03
2022-08-27T09:28:42.751Z,97495.75
2022-08-27T09:31:16.431Z,97494.53
2022-08-27T09:33:56.588Z,97499.25
2022-08-27T09:36:25.709Z,97498.81
2022-08-27T09:39:03.018Z,97495.28
2022-08-27T09:41:42.171Z,97501.47
2022-08-27T09:44:14.424Z,97493.06
2022-08-27T09:46:58.227Z,97491.84
2022-08-27T09:49:27.148Z,97494.97
2022-08-27T09:51:56.811Z,97481.97
2022-08-27T09:54:47.434Z,97489.69
2022-08-27T09:57:39.757Z,97483.03
2022-08-27T10:00:16.372Z,97491.84
2022-08-27T10:02:55.144Z,97481.34
2022-08-27T10:05:32.349Z,97489.66
2022-08-27T10:08:24.166Z,97485.81
2022-08-27T10:11:04.627Z,97485.56
2022-08-27T10:14:13.977Z,97480.78
2022-08-27T10:17:19.016Z,97480.59
2022-08-27T10:20:21.644Z,97480.47
2022-08-27T10:23:20.351Z,97479.94
2022-08-27T10:26:12.906Z,97485.44
2022-08-27T10:29:20.708Z,97487.59
2022-08-27T10:32:55.073Z,97485.28
2022-08-27T10:35:47.844Z,97490.31
2022-08-27T10:38:57.701Z,97484.59
2022-08-27T10:41:51.577Z,97485.22
2022-08-27T10:44:29.481Z,97492.28
2022-08-27T10:47:12.686Z,97488.19
2022-08-27T10:49:49.543Z,97480.78
2022-08-27T10:52:26.388Z,97489.25
2022-08-27T10:55:07.016Z,97488.94
2022-08-27T10:58:01.213Z,97486.53
2022-08-27T11:01:11.452Z,97495.22
2022-08-27T11:03:56.743Z,97501.69
2022-08-27T11:06:49.067Z,97500.50
2022-08-27T11:09:23.162Z,97498.25
2022-08-27T11:12:17.887Z,97503.44
2022-08-27T11:15:15.851Z,97506.47
2022-08-27T11:18:06.478Z,97500.72
2022-08-27T11:21:27.720Z,97504.31
2022-08-27T11:24:21.001Z,97495.97
2022-08-27T11:26:56.315Z,97496.81
2022-08-27T11:29:46.111Z,97496.97
2022-08-27T11:32:43.719Z,97501.69
2022-08-27T11:35:39.385Z,97498.00
2022-08-27T11:38:43.935Z,97498.47
2022-08-27T11:41:26.717Z,97492.03
2022-08-27T11:43:59.836Z,97494.63
2022-08-27T11:46:40.315Z,97492.34
2022-08-27T11:49:15.506Z,97491.25
2022-08-27T11:51:59.114Z,97489.25
2022-08-27T11:54:49.711Z,97496.31
2022-08-27T11:57:33.995Z,97495.06
2022-08-27T12:00:45.403Z,97492.81
2022-08-27T12:03:19.441Z,97489.84
2022-08-27T12:06:24.885Z,97486.94
2022-08-27T12:08:54.190Z,97482.91
2022-08-27T12:11:50.688Z,97487.63
2022-08-27T12:15:00.318Z,97483.38
2022-08-27T12:18:10.018Z,97479.75
2022-08-27T12:21:18.058Z,97478.25
2022-08-27T12:24:10.394Z,97477.88
2022-08-27T12:26:54.909Z,97479.00
2022-08-27T12:29:48.330Z,97473.41
2022-08-27T12:32:27.214Z,97471.94
2022-08-27T12:35:00.431Z,97471.00
2022-08-27T12:37:40.514Z,97472.72
2022-08-27T12:40:27.387Z,97476.66
2022-08-27T12:43:08.360Z,97482.28
2022-08-27T12:45:52.671Z,97479.13
2022-08-27T12:48:37.046Z,97476.53
2022-08-27T12:51:13.767Z,97475.09
2022-08-27T12:54:07.540Z,97472.56
2022-08-27T12:56:59.852Z,97479.16
2022-08-27T12:59:39.709Z,97472.88
2022-08-27T13:02:45.972Z,97473.28
2022-08-27T13:05:18.480Z,97471.84
2022-08-27T13:07:48.365Z,97472.75
2022-08-27T13:10:25.199Z,97465.38
2022-08-27T13:13:15.350Z,97467.09
2022-08-27T13:15:55.413Z,97458.41
2022-08-27T13:18:24.959Z,97446.69
2022-08-27T13:21:14.060Z,97448.28
2022-08-27T13:24:07.582Z,97450.19
2022-08-27T13:26:39.245Z,97452.47
2022-08-27T13:29:08.677Z,97446.56
2022-08-27T13:31:38.499Z,97459.97
2022-08-27T13:34:07.931Z,97449.66
2022-08-27T13:37:07.335Z,97452.72
2022-08-27T13:39:38.468Z,97453.03
2022-08-27T13:42:08.676Z,97448.09
2022-08-27T13:44:41.561Z,97452.75
2022-08-27T13:47:25.138Z,97451.44
2022-08-27T13:50:26.557Z,97458.56
2022-08-27T13:53:29.314Z,97452.84
2022-08-27T13:55:59.918Z,97445.50
2022-08-27T13:58:34.132Z,97445.22
2022-08-27T14:01:16.333Z,97435.94
2022-08-27T14:04:00.659Z,97437.22
2022-08-27T14:06:44.202Z,97440.97
2022-08-27T14:09:28.004Z,97433.59
2022-08-27T14:12:08.716Z,97439.31
2022-08-27T14:14:41.335Z,97442.81
2022-08-27T14:17:29.817Z,97450.19
2022-08-27T14:20:02.854Z,97448.19
2022-08-27T14:22:34.526Z,97455.00
2022-08-27T14:25:03.208Z,97447.06
2022-08-27T14:27:32.127Z,97441.06
2022-08-27T14:30:00.234Z,97444.59
2022-08-27T14:32:28.513Z,97441.06
2022-08-27T14:34:56.845Z,97454.13
2022-08-27T14:37:25.273Z,97443.47
2022-08-27T14:39:53.642Z,97433.41
2022-08-27T14:42:23.630Z,97442.41
2022-08-27T14:44:51.698Z,97443.53
2022-08-27T14:47:20.510Z,97439.72
2022-08-27T14:49:49.166Z,97436.47
2022-08-27T14:52:17.727Z,97440.28
2022-08-27T14:54:46.169Z,97436.75
2022-08-27T14:57:14.373Z,97441.06
2022-08-27T14:59:42.818Z,97440.25
2022-08-27T15:02:14.136Z,97439.72
2022-08-27T15:04:47.784Z,97440.03
2022-08-27T15:07:17.261Z,97448.75
2022-08-27T15:09:47.264Z,97442.50
2022-08-27T15:12:26.058Z,97450.34
2022-08-27T15:14:55.792Z,97451.91
2022-08-27T15:17:34.079Z,97447.91
2022-08-27T15:20:18.865Z,97451.03
2022-08-27T15:22:51.253Z,97443.22
2022-08-27T15:25:20.881Z,97449.66
2022-08-27T15:27:49.563Z,97443.16
2022-08-27T15:30:25.641Z,97446.38
2022-08-27T15:32:54.456Z,97449.16
2022-08-27T15:35:28.684Z,97446.66
2022-08-27T15:37:57.983Z,97449.25
2022-08-27T15:40:28.965Z,97446.59
2022-08-27T15:43:04.424Z,97447.97
2022-08-27T15:45:33.587Z,97436.47
2022-08-27T15:48:01.552Z,97440.97
2022-08-27T15:50:31.271Z,97432.47
2022-08-27T15:53:04.944Z,97441.31
2022-08-27T15:55:38.647Z,97437.06
2022-08-27T15:58:08.887Z,97433.06
2022-08-27T16:00:38.317Z,97429.00
2022-08-27T16:03:13.234Z,97429.53
2022-08-27T16:05:44.941Z,97437.63
2022-08-27T16:08:14.456Z,97444.97
2022-08-27T16:10:42.264Z,97451.00
2022-08-27T16:13:10.037Z,97444.22
2022-08-27T16:15:40.484Z,97451.13
2022-08-27T16:18:10.025Z,97450.34
2022-08-27T16:20:38.351Z,97462.81
2022-08-27T16:23:06.180Z,97456.19
2022-08-27T16:25:34.009Z,97455.56
2022-08-27T16:28:01.917Z,97456.19
2022-08-27T16:30:30.225Z,97451.69
2022-08-27T16:32:58.326Z,97455.03
2022-08-27T16:35:26.126Z,97445.34
2022-08-27T16:37:54.055Z,97446.78
2022-08-27T16:40:22.519Z,97447.59
2022-08-27T16:42:52.591Z,97447.84
2022-08-27T16:45:23.619Z,97444.97
2022-08-27T16:48:10.758Z,97446.81
2022-08-27T16:50:40.205Z,97448.13
2022-08-27T16:53:13.726Z,97444.34
2022-08-27T16:55:44.330Z,97448.19
2022-08-27T16:58:32.430Z,97445.16
2022-08-27T17:01:09.656Z,97447.84
2022-08-27T17:04:18.177Z,97442.53
2022-08-27T17:06:44.769Z,97438.41
2022-08-27T17:09:13.634Z,97440.56
2022-08-27T17:11:42.972Z,97436.97
2022-08-27T17:14:12.213Z,97444.22
2022-08-27T17:16:43.314Z,97440.94
2022-08-27T17:19:13.326Z,97439.88
2022-08-27T17:21:45.436Z,97441.50
2022-08-27T17:24:14.018Z,97441.25
2022-08-27T17:26:41.819Z,97442.94
2022-08-27T17:29:09.628Z,97451.25
2022-08-27T17:31:40.831Z,97453.41
2022-08-27T17:34:16.832Z,97456.69
2022-08-27T17:36:46.198Z,97459.16
2022-08-27T17:39:14.711Z,97458.91
2022-08-27T17:41:51.700Z,97455.66
2022-08-27T17:44:34.993Z,97459.81
2022-08-27T17:47:07.677Z,97461.97
2022-08-27T17:49:36.939Z,97449.41
2022-08-27T17:52:10.577Z,97448.84
2022-08-27T17:54:54.334Z,97446.38
2022-08-27T17:57:37.427Z,97454.22
2022-08-27T18:00:13.164Z,97449.78
2022-08-27T18:02:50.077Z,97448.84
2022-08-27T18:05:20.801Z,97449.31
2022-08-27T18:07:49.598Z,97451.69
2022-08-27T18:10:23.857Z,97454.94
2022-08-27T18:12:55.343Z,97457.09
2022-08-27T18:15:30.177Z,97463.81
2022-08-27T18:17:59.548Z,97471.97
2022-08-27T18:20:30.579Z,97470.09
2022-08-27T18:23:00.041Z,97477.97
2022-08-27T18:25:35.817Z,97486.44
2022-08-27T18:28:10.307Z,97492.78
2022-08-27T18:30:43.483Z,97491.72
2022-08-27T18:33:11.508Z,97493.84
2022-08-27T18:35:40.305Z,97494.63
2022-08-27T18:38:08.217Z,97496.19
2022-08-27T18:40:45.359Z,97500.22
2022-08-27T18:43:16.071Z,97493.72
2022-08-27T18:45:44.426Z,97498.34
2022-08-27T18:48:21.285Z,97494.22
2022-08-27T18:50:58.583Z,97503.41
2022-08-27T18:53:31.214Z,97506.88
2022-08-27T18:56:00.123Z,97518.00
2022-08-27T18:58:29.052Z,97516.03
2022-08-27T19:01:01.940Z,97516.78
2022-08-27T19:03:52.989Z,97515.38
2022-08-27T19:06:22.238Z,97519.16
2022-08-27T19:08:50.863Z,97515.88
2022-08-27T19:11:18.678Z,97511.91
2022-08-27T19:13:50.568Z,97519.72
2022-08-27T19:16:50.653Z,97517.28
2022-08-27T19:19:18.973Z,97520.66
2022-08-27T19:21:51.195Z,97521.38
2022-08-27T19:24:22.753Z,97532.81
2022-08-27T19:26:51.050Z,97533.56
2022-08-27T19:29:19.770Z,97544.09
2022-08-27T19:31:47.730Z,97541.03
2022-08-27T19:34:15.803Z,97547.09
2022-08-27T19:36:44.770Z,97547.84
2022-08-27T19:39:13.831Z,97539.09
2022-08-27T19:41:41.585Z,97541.72
2022-08-27T19:44:09.509Z,97535.13
2022-08-27T19:46:37.917Z,97542.69
2022-08-27T19:49:05.758Z,97540.56
2022-08-27T19:51:33.748Z,97541.38
2022-08-27T19:54:01.558Z,97549.03
2022-08-27T19:56:32.469Z,97544.66
2022-08-27T19:59:13.433Z,97547.03
2022-08-27T20:01:48.324Z,97554.38
2022-08-27T20:04:16.359Z,97547.19
2022-08-27T20:06:44.509Z,97551.22
2022-08-27T20:09:16.123Z,97549.81
2022-08-27T20:11:49.539Z,97557.94
2022-08-27T20:14:18.534Z,97550.06
2022-08-27T20:16:47.556Z,97549.72
2022-08-27T20:19:16.835Z,97548.56
2022-08-27T20:21:44.835Z,97553.13
2022-08-27T20:24:12.786Z,97556.59
2022-08-27T20:26:40.819Z,97556.00
2022-08-27T20:29:09.063Z,97551.91
2022-08-27T20:31:37.000Z,97550.22
2022-08-27T20:34:05.460Z,97551.28
2022-08-27T20:36:34.205Z,97553.69
2022-08-27T20:39:02.211Z,97552.00
2022-08-27T20:41:30.636Z,97554.38
2022-08-27T20:43:58.476Z,97554.53
2022-08-27T20:46:29.307Z,97547.59
2022-08-27T20:48:58.538Z,97549.13
2022-08-27T20:51:27.204Z,97547.47
2022-08-27T20:53:55.106Z,97547.13
2022-08-27T20:56:22.981Z,97551.16
2022-08-27T20:59:08.867Z,97551.56
2022-08-27T21:01:37.697Z,97557.00
2022-08-27T21:04:05.496Z,97565.13
2022-08-27T21:06:33.635Z,97565.53
2022-08-27T21:09:01.925Z,97567.53
2022-08-27T21:11:29.949Z,97567.38
2022-08-27T21:13:57.754Z,97575.28
2022-08-27T21:16:26.259Z,97570.44
2022-08-27T21:18:55.602Z,97574.56
2022-08-27T21:21:24.067Z,97573.75
2022-08-27T21:23:51.976Z,97563.94
2022-08-27T21:26:22.114Z,97574.34
2022-08-27T21:28:50.053Z,97583.06
2022-08-27T21:31:25.294Z,97578.44
2022-08-27T21:33:53.479Z,97581.16
2022-08-27T21:36:21.414Z,97582.00
2022-08-27T21:38:49.712Z,97579.28
2022-08-27T21:41:17.526Z,97578.78
2022-08-27T21:43:45.317Z,97571.25
2022-08-27T21:46:13.114Z,97580.22
2022-08-27T21:48:40.980Z,97579.38
2022-08-27T21:51:11.413Z,97575.84
2022-08-27T21:53:40.385Z,97584.56
2022-08-27T21:56:11.752Z,97586.22
2022-08-27T21:58:39.839Z,97587.63
2022-08-27T22:01:08.114Z,97590.69
2022-08-27T22:03:36.550Z,97576.63
2022-08-27T22:06:07.992Z,97579.09
2022-08-27T22:08:35.821Z,97576.63
2022-08-27T22:11:04.210Z,97574.41
2022-08-27T22:13:33.874Z,97578.41
2022-08-27T22:16:02.296Z,97575.97
2022-08-27T22:18:30.680Z,97567.25
2022-08-27T22:20:59.114Z,97566.06
2022-08-27T22:23:27.862Z,97575.50
2022-08-27T22:25:55.696Z,97567.84
2022-08-27T22:28:23.658Z,97563.47
2022-08-27T22:30:51.427Z,97568.91
2022-08-27T22:33:19.433Z,97565.38
2022-08-27T22:35:47.840Z,97560.78
2022-08-27T22:38:15.969Z,97565.16
2022-08-27T22:40:43.905Z,97561.13
2022-08-27T22:43:12.393Z,97560.03
2022-08-27T22:45:40.198Z,97550.03
2022-08-27T22:48:08.228Z,97560.03
2022-08-27T22:50:36.344Z,97564.88
2022-08-27T22:53:04.437Z,97560.78
2022-08-27T22:55:32.267Z,97557.25
2022-08-27T22:58:02.127Z,97553.22
2022-08-27T23:00:35.258Z,97560.31
2022-08-27T23:03:06.333Z,97549.19
2022-08-27T23:05:40.264Z,97548.59
2022-08-27T23:08:13.168Z,97547.56
2022-08-27T23:10:44.031Z,97547.78
2022-08-27T23:13:13.311Z,97553.72
2022-08-27T23:15:42.324Z,97555.81
2022-08-27T23:18:10.508Z,97559.59
2022-08-27T23:20:38.534Z,97559.25
2022-08-27T23:23:08.065Z,97561.97
2022-08-27T23:25:54.371Z,97556.53
2022-08-27T23:28:23.447Z,97556.53
2022-08-27T23:30:51.880Z,97559.75
2022-08-27T23:33:20.148Z,97555.03
2022-08-27T23:35:51.404Z,97565.06
2022-08-27T23:38:21.818Z,97570.25
2022-08-27T23:40:50.646Z,97572.38
2022-08-27T23:43:19.116Z,97566.78
2022-08-27T23:45:47.482Z,97568.22
2022-08-27T23:48:15.587Z,97570.72
2022-08-27T23:50:44.210Z,97572.47
2022-08-27T23:53:13.201Z,97570.56
2022-08-27T23:55:41.265Z,97574.72
2022-08-27T23:58:09.646Z,97580.25
